createdAt,value
2023-04-09T00:04:29.733Z,7.30
2023-04-09T00:09:24.787Z,7.20
2023-04-09T00:11:40.624Z,7.19
2023-04-09T00:14:22.770Z,7.20
2023-04-09T00:16:27.165Z,7.18
2023-04-09T00:18:24.602Z,7.12
2023-04-09T00:20:19.984Z,7.08
2023-04-09T00:22:17.956Z,7.02
2023-04-09T00:24:13.830Z,6.99
2023-04-09T00:26:10.625Z,6.99
2023-04-09T00:28:06.677Z,6.97
2023-04-09T00:30:01.826Z,6.98
2023-04-09T00:31:57.027Z,6.95
2023-04-09T00:33:52.621Z,6.95
2023-04-09T00:35:47.775Z,6.93
2023-04-09T00:37:46.058Z,6.89
2023-04-09T00:39:41.401Z,6.84
2023-04-09T00:41:36.925Z,6.82
2023-04-09T00:43:32.130Z,6.81
2023-04-09T00:45:27.767Z,6.81
2023-04-09T00:47:23.299Z,6.73
2023-04-09T00:49:19.199Z,6.67
2023-04-09T00:51:14.387Z,6.68
2023-04-09T00:53:14.970Z,6.74
2023-04-09T00:55:12.546Z,6.76
2023-04-09T00:57:08.216Z,6.69
2023-04-09T00:59:03.810Z,6.68
2023-04-09T01:00:59.389Z,6.73
2023-04-09T01:02:54.602Z,6.71
2023-04-09T01:04:50.630Z,6.71
2023-04-09T01:06:51.744Z,6.70
2023-04-09T01:08:58.703Z,6.73
2023-04-09T01:11:01.494Z,6.69
2023-04-09T01:13:10.077Z,6.60
2023-04-09T01:15:10.087Z,6.54
2023-04-09T01:17:12.201Z,6.46
2023-04-09T01:19:19.958Z,6.36
2023-04-09T01:21:19.082Z,6.32
2023-04-09T01:23:24.241Z,6.34
2023-04-09T01:25:37.754Z,6.31
2023-04-09T01:27:42.332Z,6.22
2023-04-09T01:29:44.633Z,6.15
2023-04-09T01:31:43.287Z,6.02
2023-04-09T01:33:41.052Z,6.10
2023-04-09T01:35:36.497Z,6.15
2023-04-09T01:37:31.994Z,6.18
2023-04-09T01:39:28.292Z,6.17
2023-04-09T01:41:25.329Z,6.17
2023-04-09T01:43:22.066Z,6.15
2023-04-09T01:45:21.084Z,6.15
2023-04-09T01:47:17.060Z,6.13
2023-04-09T01:49:13.986Z,6.10
2023-04-09T01:51:10.087Z,6.06
2023-04-09T01:53:05.948Z,6.07
2023-04-09T01:55:01.405Z,6.09
2023-04-09T01:56:56.783Z,6.11
2023-04-09T01:58:52.925Z,6.09
2023-04-09T02:00:51.974Z,6.13
2023-04-09T02:02:52.036Z,6.13
2023-04-09T02:04:50.835Z,6.09
2023-04-09T02:06:51.504Z,6.06
2023-04-09T02:08:49.366Z,6.07
2023-04-09T02:10:53.508Z,6.07
2023-04-09T02:12:53.374Z,6.03
2023-04-09T02:14:51.882Z,5.96
2023-04-09T02:16:49.863Z,5.90
2023-04-09T02:18:45.387Z,5.82
2023-04-09T02:20:40.628Z,5.74
2023-04-09T02:22:36.193Z,5.65
2023-04-09T02:24:31.304Z,5.59
2023-04-09T02:26:26.990Z,5.70
2023-04-09T02:28:22.095Z,5.71
2023-04-09T02:30:17.683Z,5.70
2023-04-09T02:32:15.624Z,5.67
2023-04-09T02:34:11.099Z,5.66
2023-04-09T02:36:06.274Z,5.66
2023-04-09T02:38:02.084Z,5.58
2023-04-09T02:39:57.172Z,5.53
2023-04-09T02:41:52.753Z,5.51
2023-04-09T02:43:47.872Z,5.45
2023-04-09T02:45:43.334Z,5.41
2023-04-09T02:47:41.088Z,5.37
2023-04-09T02:49:36.555Z,5.40
2023-04-09T02:51:31.671Z,5.37
2023-04-09T02:53:27.396Z,5.30
2023-04-09T02:55:23.858Z,5.22
2023-04-09T02:57:19.360Z,5.18
2023-04-09T02:59:14.476Z,5.18
2023-04-09T03:01:10.052Z,5.16
2023-04-09T03:03:07.864Z,5.15
2023-04-09T03:05:03.431Z,5.17
2023-04-09T03:06:58.606Z,5.14
2023-04-09T03:08:54.187Z,5.16
2023-04-09T03:10:49.349Z,5.18
2023-04-09T03:12:48.079Z,5.21
2023-04-09T03:14:43.155Z,5.22
2023-04-09T03:22:04.005Z,5.29
2023-04-09T03:30:03.765Z,5.20
2023-04-09T03:32:33.179Z,5.12
2023-04-09T03:35:01.250Z,5.02
2023-04-09T03:37:03.892Z,4.96
2023-04-09T03:39:19.487Z,4.97
2023-04-09T03:43:38.502Z,4.97
2023-04-09T03:45:33.712Z,4.96
2023-04-09T03:47:29.300Z,4.97
2023-04-09T03:49:24.513Z,5.02
2023-04-09T03:51:22.860Z,5.04
2023-04-09T03:53:18.385Z,5.03
2023-04-09T03:55:14.025Z,5.05
2023-04-09T03:57:09.237Z,5.04
2023-04-09T03:59:04.836Z,4.99
2023-04-09T04:00:59.917Z,5.01
2023-04-09T04:02:55.795Z,5.03
2023-04-09T04:04:51.152Z,4.96
2023-04-09T04:06:49.394Z,4.90
2023-04-09T04:08:44.852Z,4.92
2023-04-09T04:10:40.335Z,4.92
2023-04-09T04:12:35.656Z,4.90
2023-04-09T04:14:31.195Z,4.87
2023-04-09T04:16:26.824Z,4.84
2023-04-09T04:18:22.462Z,4.82
2023-04-09T04:20:17.902Z,4.79
2023-04-09T04:22:28.245Z,4.78
2023-04-09T04:24:34.627Z,4.81
2023-04-09T04:27:14.905Z,4.79
2023-04-09T04:29:17.819Z,4.79
2023-04-09T04:31:28.521Z,4.74
2023-04-09T04:33:28.810Z,4.71
2023-04-09T04:35:30.455Z,4.70
2023-04-09T04:37:29.384Z,4.69
2023-04-09T04:42:19.922Z,4.67
2023-04-09T04:44:29.444Z,4.66
2023-04-09T04:46:26.606Z,4.64
2023-04-09T04:48:23.012Z,4.60
2023-04-09T04:50:28.162Z,4.45
2023-04-09T04:52:26.004Z,4.37
2023-04-09T04:54:29.183Z,4.38
2023-04-09T04:56:31.299Z,4.37
2023-04-09T04:58:31.906Z,4.39
2023-04-09T05:00:31.259Z,4.37
2023-04-09T05:02:27.407Z,4.31
2023-04-09T05:04:27.894Z,4.30
2023-04-09T05:06:25.142Z,4.31
2023-04-09T05:08:26.993Z,4.26
2023-04-09T05:10:25.375Z,4.19
2023-04-09T05:12:23.961Z,4.25
2023-04-09T05:14:24.360Z,4.23
2023-04-09T05:16:22.128Z,4.27
2023-04-09T05:18:18.178Z,4.28
2023-04-09T05:20:16.362Z,4.34
2023-04-09T05:22:16.327Z,4.38
2023-04-09T05:24:12.687Z,4.40
2023-04-09T05:26:16.139Z,4.43
2023-04-09T05:28:12.464Z,4.42
2023-04-09T05:30:08.719Z,4.38
2023-04-09T05:32:04.356Z,4.36
2023-04-09T05:34:02.411Z,4.36
2023-04-09T05:35:58.183Z,4.38
2023-04-09T05:37:53.612Z,4.40
2023-04-09T05:39:52.539Z,4.43
2023-04-09T05:41:52.648Z,4.45
2023-04-09T05:43:52.137Z,4.49
2023-04-09T05:45:53.459Z,4.51
2023-04-09T05:47:49.401Z,4.54
2023-04-09T05:49:48.197Z,4.57
2023-04-09T05:51:43.988Z,4.54
2023-04-09T05:53:39.676Z,4.56
2023-04-09T05:55:36.156Z,4.61
2023-04-09T05:57:33.917Z,4.61
2023-04-09T05:59:29.745Z,4.63
2023-04-09T06:01:24.882Z,4.60
2023-04-09T06:03:20.803Z,4.52
2023-04-09T06:05:16.146Z,4.44
2023-04-09T06:07:11.627Z,4.42
2023-04-09T06:09:06.943Z,4.32
2023-04-09T06:11:03.592Z,4.23
2023-04-09T06:13:01.305Z,4.17
2023-04-09T06:14:56.831Z,4.18
2023-04-09T06:16:51.979Z,4.17
2023-04-09T06:18:52.251Z,4.14
2023-04-09T06:20:47.379Z,4.22
2023-04-09T06:22:42.900Z,4.30
2023-04-09T06:24:38.073Z,4.32
2023-04-09T06:26:33.522Z,4.29
2023-04-09T06:28:31.995Z,4.25
2023-04-09T06:30:27.734Z,4.25
2023-04-09T06:32:22.943Z,4.27
2023-04-09T06:34:18.393Z,4.29
2023-04-09T06:36:14.190Z,4.30
2023-04-09T06:38:10.252Z,4.29
2023-04-09T06:40:07.562Z,4.30
2023-04-09T06:42:06.646Z,4.31
2023-04-09T06:44:04.506Z,4.31
2023-04-09T06:46:00.057Z,4.28
2023-04-09T06:47:57.497Z,4.37
2023-04-09T06:49:53.336Z,4.35
2023-04-09T06:51:48.481Z,4.40
2023-04-09T06:53:44.077Z,4.40
2023-04-09T06:55:39.299Z,4.44
2023-04-09T06:57:34.868Z,4.40
2023-04-09T06:59:34.024Z,4.41
2023-04-09T07:01:30.533Z,4.54
2023-04-09T07:03:28.180Z,4.51
2023-04-09T07:05:25.243Z,4.54
2023-04-09T07:07:25.036Z,4.51
2023-04-09T07:09:21.615Z,4.60
2023-04-09T07:11:17.809Z,4.72
2023-04-09T07:13:22.148Z,4.81
2023-04-09T07:15:20.035Z,4.86
2023-04-09T07:17:15.656Z,4.96
2023-04-09T07:19:12.707Z,4.99
2023-04-09T07:21:08.761Z,5.02
2023-04-09T07:23:04.024Z,5.07
2023-04-09T07:24:59.692Z,5.12
2023-04-09T07:26:55.636Z,5.10
2023-04-09T07:28:51.865Z,5.14
2023-04-09T07:30:49.943Z,5.14
2023-04-09T07:32:47.456Z,5.21
2023-04-09T07:34:42.613Z,5.25
2023-04-09T07:36:38.832Z,5.31
2023-04-09T07:38:35.052Z,5.39
2023-04-09T07:40:30.709Z,5.50
2023-04-09T07:42:25.912Z,5.56
2023-04-09T07:44:21.466Z,5.59
2023-04-09T07:46:24.617Z,5.62
2023-04-09T07:48:20.643Z,5.72
2023-04-09T07:50:16.058Z,5.80
2023-04-09T07:52:11.670Z,5.89
2023-04-09T07:54:07.149Z,5.92
2023-04-09T07:56:03.202Z,6.01
2023-04-09T07:57:58.973Z,6.07
2023-04-09T07:59:58.608Z,6.09
2023-04-09T08:01:56.688Z,6.12
2023-04-09T08:03:52.613Z,6.03
2023-04-09T08:05:47.991Z,6.07
2023-04-09T08:07:43.704Z,6.16
2023-04-09T08:09:38.907Z,6.25
2023-04-09T08:11:34.511Z,6.43
2023-04-09T08:13:30.303Z,6.50
2023-04-09T08:15:26.027Z,6.59
2023-04-09T08:17:23.910Z,6.70
2023-04-09T08:19:20.513Z,6.82
2023-04-09T08:21:16.019Z,6.94
2023-04-09T08:25:37.973Z,7.09
2023-04-09T08:27:35.654Z,7.14
2023-04-09T08:29:32.184Z,7.35
2023-04-09T08:31:30.513Z,7.29
2023-04-09T08:33:29.138Z,7.28
2023-04-09T08:35:24.629Z,7.38
2023-04-09T08:37:19.806Z,7.48
2023-04-09T08:39:15.609Z,7.60
2023-04-09T08:41:11.340Z,7.41
2023-04-09T08:43:09.280Z,7.43
2023-04-09T08:45:07.070Z,7.43
2023-04-09T08:47:03.166Z,7.60
2023-04-09T08:49:01.124Z,7.72
2023-04-09T08:50:56.663Z,7.90
2023-04-09T08:52:52.238Z,7.90
2023-04-09T08:54:48.010Z,8.01
2023-04-09T08:56:43.293Z,8.18
2023-04-09T08:58:39.162Z,8.37
2023-04-09T09:00:34.337Z,8.47
2023-04-09T09:02:31.615Z,8.55
2023-04-09T09:04:48.133Z,8.67
2023-04-09T09:06:45.099Z,8.60
2023-04-09T09:08:40.172Z,8.68
2023-04-09T09:10:41.602Z,8.82
2023-04-09T09:12:41.501Z,8.66
2023-04-09T09:14:37.156Z,8.72
2023-04-09T09:16:34.818Z,8.84
2023-04-09T09:18:41.677Z,8.78
2023-04-09T09:20:39.675Z,8.96
2023-04-09T09:22:55.285Z,9.11
2023-04-09T09:24:54.101Z,9.18
2023-04-09T09:26:49.716Z,9.40
2023-04-09T09:28:45.105Z,9.36
2023-04-09T09:30:41.807Z,9.45
2023-04-09T09:32:37.854Z,9.62
2023-04-09T09:34:33.108Z,9.69
2023-04-09T09:36:40.455Z,9.78
2023-04-09T09:38:35.622Z,9.94
2023-04-09T09:40:31.709Z,10.08
2023-04-09T09:42:27.300Z,10.04
2023-04-09T09:44:35.110Z,10.21
2023-04-09T09:46:31.685Z,10.15
2023-04-09T09:48:29.891Z,10.40
2023-04-09T09:50:28.710Z,10.21
2023-04-09T09:52:36.992Z,10.38
2023-04-09T09:54:37.926Z,10.69
2023-04-09T09:56:39.140Z,10.75
2023-04-09T09:58:43.943Z,10.70
2023-04-09T10:00:40.768Z,10.91
2023-04-09T10:03:15.662Z,10.90
2023-04-09T10:05:14.494Z,11.18
2023-04-09T10:07:10.814Z,11.20
2023-04-09T10:09:10.228Z,11.17
2023-04-09T10:11:09.631Z,11.03
2023-04-09T10:13:09.733Z,10.82
2023-04-09T10:15:06.624Z,10.91
2023-04-09T10:17:08.369Z,10.82
2023-04-09T10:19:05.405Z,10.90
2023-04-09T10:21:05.611Z,10.97
2023-04-09T10:23:09.514Z,11.19
2023-04-09T10:25:11.161Z,11.70
2023-04-09T10:27:16.003Z,11.75
2023-04-09T10:29:17.243Z,11.89
2023-04-09T10:31:12.454Z,12.18
2023-04-09T10:33:14.354Z,12.31
2023-04-09T10:35:12.510Z,12.72
2023-04-09T10:37:10.480Z,13.01
2023-04-09T10:39:15.890Z,12.84
2023-04-09T10:41:25.323Z,12.79
2023-04-09T10:43:23.678Z,12.70
2023-04-09T10:45:22.367Z,12.82
2023-04-09T10:47:35.215Z,13.32
2023-04-09T10:49:38.921Z,13.60
2023-04-09T10:51:51.887Z,13.70
2023-04-09T10:53:54.780Z,13.79
2023-04-09T10:55:54.487Z,13.50
2023-04-09T10:58:18.687Z,13.18
2023-04-09T11:00:53.443Z,13.32
2023-04-09T11:03:26.203Z,13.78
2023-04-09T11:08:42.374Z,14.22
2023-04-09T11:10:41.285Z,14.42
2023-04-09T11:12:38.920Z,14.52
2023-04-09T11:14:37.034Z,15.04
2023-04-09T11:16:33.262Z,14.99
2023-04-09T11:18:30.107Z,15.05
2023-04-09T11:20:28.342Z,15.05
2023-04-09T11:22:23.542Z,15.11
2023-04-09T11:24:21.634Z,15.39
2023-04-09T11:26:19.638Z,15.65
2023-04-09T11:28:16.885Z,15.49
2023-04-09T11:30:16.789Z,15.49
2023-04-09T11:32:12.530Z,15.45
2023-04-09T11:34:08.105Z,15.04
2023-04-09T11:36:04.323Z,15.21
2023-04-09T11:37:59.991Z,15.35
2023-04-09T11:39:58.468Z,15.40
2023-04-09T11:41:54.616Z,15.67
2023-04-09T11:43:50.460Z,16.16
2023-04-09T11:45:50.306Z,16.44
2023-04-09T11:47:47.369Z,16.72
2023-04-09T11:49:43.491Z,16.37
2023-04-09T11:51:39.886Z,16.16
2023-04-09T11:53:35.175Z,16.20
2023-04-09T11:55:31.995Z,16.62
2023-04-09T11:57:27.620Z,16.64
2023-04-09T11:59:23.422Z,16.39
2023-04-09T12:01:21.188Z,16.50
2023-04-09T12:03:18.236Z,16.76
2023-04-09T12:05:16.594Z,16.35
2023-04-09T12:07:12.750Z,16.91
2023-04-09T12:09:13.847Z,16.97
2023-04-09T12:11:13.564Z,16.86
2023-04-09T12:13:10.653Z,17.13
2023-04-09T12:15:14.033Z,17.48
2023-04-09T12:17:12.963Z,17.94
2023-04-09T12:19:10.107Z,18.40
2023-04-09T12:21:11.061Z,18.74
2023-04-09T12:23:11.163Z,19.04
2023-04-09T12:25:09.939Z,19.22
2023-04-09T12:27:05.415Z,19.35
2023-04-09T12:29:01.322Z,19.53
2023-04-09T12:30:59.073Z,19.61
2023-04-09T12:33:01.724Z,19.60
2023-04-09T12:34:57.198Z,19.73
2023-04-09T12:40:42.170Z,19.33
2023-04-09T12:42:49.901Z,19.50
2023-04-09T12:44:57.761Z,19.19
2023-04-09T12:47:02.462Z,19.63
2023-04-09T12:49:06.628Z,19.78
2023-04-09T12:51:14.379Z,20.04
2023-04-09T12:53:17.087Z,20.38
2023-04-09T12:55:33.906Z,20.55
2023-04-09T12:57:36.075Z,20.32
2023-04-09T12:59:31.621Z,19.69
2023-04-09T13:01:27.218Z,19.97
2023-04-09T13:03:23.214Z,19.78
2023-04-09T13:05:21.128Z,19.77
2023-04-09T13:07:21.246Z,19.90
2023-04-09T13:09:16.334Z,20.33
2023-04-09T13:11:11.877Z,20.14
2023-04-09T13:13:12.027Z,19.53
2023-04-09T13:15:09.184Z,19.77
2023-04-09T13:17:06.119Z,20.17
2023-04-09T13:19:03.202Z,20.55
2023-04-09T13:21:03.538Z,20.84
2023-04-09T13:23:02.202Z,20.96
2023-04-09T13:24:57.505Z,20.85
2023-04-09T13:26:54.168Z,21.24
2023-04-09T13:28:52.147Z,21.65
2023-04-09T13:30:47.934Z,21.70
2023-04-09T13:32:43.833Z,21.89
2023-04-09T13:34:39.789Z,21.93
2023-04-09T13:36:37.875Z,21.91
2023-04-09T13:38:33.605Z,22.08
2023-04-09T13:40:28.862Z,21.87
2023-04-09T13:42:24.425Z,21.70
2023-04-09T13:44:19.847Z,20.25
2023-04-09T13:46:19.473Z,20.05
2023-04-09T13:48:15.576Z,21.04
2023-04-09T13:50:14.081Z,21.64
2023-04-09T13:52:13.146Z,21.97
2023-04-09T13:54:08.801Z,21.85
2023-04-09T13:56:04.502Z,22.01
2023-04-09T13:57:59.917Z,21.18
2023-04-09T13:59:56.103Z,20.92
2023-04-09T14:01:51.905Z,20.77
2023-04-09T14:03:48.325Z,20.14
2023-04-09T14:05:44.457Z,20.09
2023-04-09T14:07:42.799Z,20.91
2023-04-09T14:09:38.317Z,20.72
2023-04-09T14:11:34.273Z,21.13
2023-04-09T14:13:29.630Z,21.72
2023-04-09T14:15:25.225Z,22.15
2023-04-09T14:17:20.631Z,21.38
2023-04-09T14:19:16.554Z,21.97
2023-04-09T14:21:12.136Z,22.54
2023-04-09T14:23:10.798Z,23.14
2023-04-09T14:25:06.939Z,23.51
2023-04-09T14:27:04.006Z,23.84
2023-04-09T14:28:59.308Z,24.19
2023-04-09T14:30:58.406Z,24.48
2023-04-09T14:32:53.709Z,24.70
2023-04-09T14:34:49.466Z,24.92
2023-04-09T14:36:44.980Z,25.13
2023-04-09T14:38:43.521Z,25.22
2023-04-09T14:40:42.598Z,25.38
2023-04-09T14:42:38.892Z,25.53
2023-04-09T14:44:35.096Z,25.63
2023-04-09T14:46:31.584Z,25.66
2023-04-09T14:48:27.499Z,25.56
2023-04-09T14:50:27.682Z,25.48
2023-04-09T14:52:26.188Z,25.50
2023-04-09T14:54:24.765Z,25.63
2023-04-09T14:56:21.179Z,25.62
2023-04-09T14:58:16.832Z,25.73
2023-04-09T15:00:14.312Z,25.69
2023-04-09T15:02:09.817Z,25.66
2023-04-09T15:04:05.314Z,25.68
2023-04-09T15:19:34.241Z,24.71
2023-04-09T15:28:31.131Z,24.50
2023-04-09T15:30:43.377Z,24.56
2023-04-09T15:32:40.188Z,24.31
2023-04-09T15:34:41.677Z,24.26
2023-04-09T15:36:43.212Z,24.13
2023-04-09T15:38:54.160Z,24.09
2023-04-09T15:40:57.738Z,23.83
2023-04-09T15:43:02.487Z,23.57
2023-04-09T15:44:59.959Z,23.48
2023-04-09T15:46:59.366Z,23.30
2023-04-09T15:48:58.216Z,23.26
2023-04-09T15:50:57.178Z,23.29
2023-04-09T15:53:49.299Z,23.02
2023-04-09T15:59:06.081Z,22.76
2023-04-09T16:01:05.068Z,22.33
2023-04-09T16:03:14.378Z,22.05
2023-04-09T16:05:13.928Z,21.85
2023-04-09T16:07:12.480Z,22.14
2023-04-09T16:09:08.814Z,22.15
2023-04-09T16:11:05.094Z,22.23
2023-04-09T16:13:06.802Z,22.24
2023-04-09T16:15:17.902Z,22.41
2023-04-09T16:17:16.357Z,22.47
2023-04-09T16:19:13.327Z,22.43
2023-04-09T16:21:13.306Z,22.49
2023-04-09T16:23:30.601Z,22.39
2023-04-09T16:25:59.493Z,22.41
2023-04-09T16:28:12.129Z,22.36
2023-04-09T16:32:59.193Z,22.31
2023-04-09T16:34:56.312Z,22.28
2023-04-09T16:36:52.138Z,22.18
2023-04-09T16:38:52.974Z,22.05
2023-04-09T16:40:48.593Z,22.10
2023-04-09T16:42:44.147Z,21.99
2023-04-09T16:44:39.409Z,22.00
2023-04-09T16:46:35.244Z,22.05
2023-04-09T16:48:31.230Z,22.03
2023-04-09T16:53:47.386Z,21.99
2023-04-09T16:55:45.723Z,21.90
2023-04-09T16:57:41.707Z,21.84
2023-04-09T16:59:37.754Z,21.78
2023-04-09T17:01:32.997Z,21.72
2023-04-09T17:03:28.691Z,21.60
2023-04-09T17:05:24.172Z,21.54
2023-04-09T17:07:19.778Z,21.45
2023-04-09T17:09:16.704Z,21.42
2023-04-09T17:11:17.568Z,21.36
2023-04-09T17:13:12.824Z,21.35
2023-04-09T17:15:09.589Z,21.16
2023-04-09T17:17:04.780Z,21.10
2023-04-09T17:19:01.153Z,21.11
2023-04-09T17:21:04.764Z,20.99
2023-04-09T17:23:05.698Z,20.99
2023-04-09T17:25:04.900Z,20.85
2023-04-09T17:27:04.544Z,20.71
2023-04-09T17:29:06.003Z,20.64
2023-04-09T17:31:01.689Z,20.51
2023-04-09T17:32:56.996Z,20.49
2023-04-09T17:34:52.751Z,20.48
2023-04-09T17:36:50.110Z,20.38
2023-04-09T17:38:45.987Z,20.37
2023-04-09T17:40:41.352Z,20.24
2023-04-09T17:42:41.944Z,20.12
2023-04-09T17:44:39.406Z,20.08
2023-04-09T17:46:36.251Z,20.01
2023-04-09T17:48:32.175Z,19.94
2023-04-09T17:50:45.896Z,19.86
2023-04-09T17:52:41.504Z,19.83
2023-04-09T17:54:38.192Z,19.74
2023-04-09T17:56:35.589Z,19.61
2023-04-09T17:58:34.360Z,19.53
2023-04-09T18:00:29.770Z,19.43
2023-04-09T18:02:25.854Z,19.37
2023-04-09T18:04:21.675Z,19.31
2023-04-09T18:06:17.727Z,19.25
2023-04-09T18:08:13.594Z,19.14
2023-04-09T18:10:10.687Z,19.03
2023-04-09T18:12:06.320Z,18.89
2023-04-09T18:14:08.110Z,18.69
2023-04-09T18:16:03.615Z,18.66
2023-04-09T18:18:56.493Z,18.68
2023-04-09T18:21:15.478Z,18.70
2023-04-09T18:23:11.505Z,18.64
2023-04-09T18:25:29.128Z,18.61
2023-04-09T18:27:29.602Z,18.57
2023-04-09T18:29:59.622Z,18.48
2023-04-09T18:31:59.152Z,18.42
2023-04-09T18:33:57.722Z,18.33
2023-04-09T18:35:53.840Z,18.28
2023-04-09T18:38:19.807Z,18.22
2023-04-09T18:40:29.979Z,18.16
2023-04-09T18:42:36.442Z,18.13
2023-04-09T18:44:34.238Z,18.07
2023-04-09T18:46:34.676Z,17.92
2023-04-09T18:48:33.322Z,17.68
2023-04-09T18:50:28.703Z,17.59
2023-04-09T18:52:24.369Z,17.39
2023-04-09T18:54:22.554Z,17.18
2023-04-09T18:56:18.217Z,17.11
2023-04-09T18:58:16.305Z,17.06
2023-04-09T19:00:12.929Z,17.09
2023-04-09T19:02:10.898Z,17.09
2023-04-09T19:04:06.649Z,17.07
2023-04-09T19:06:04.333Z,17.06
2023-04-09T19:08:02.726Z,16.98
2023-04-09T19:10:02.067Z,16.99
2023-04-09T19:12:03.765Z,16.95
2023-04-09T19:13:59.439Z,16.91
2023-04-09T19:15:57.190Z,16.86
2023-04-09T19:18:26.169Z,16.82
2023-04-09T19:20:54.464Z,16.69
2023-04-09T19:23:24.192Z,16.52
2023-04-09T19:25:23.484Z,16.42
2023-04-09T19:27:19.653Z,16.38
2023-04-09T19:29:15.938Z,16.33
2023-04-09T19:31:26.216Z,16.16
2023-04-09T19:33:28.162Z,16.06
2023-04-09T19:35:24.127Z,15.89
2023-04-09T19:37:19.629Z,15.72
2023-04-09T19:39:15.749Z,15.61
2023-04-09T19:41:11.496Z,15.59
2023-04-09T19:43:06.621Z,15.61
2023-04-09T19:45:02.788Z,15.52
2023-04-09T19:46:58.340Z,15.40
2023-04-09T19:49:00.378Z,15.33
2023-04-09T19:50:59.448Z,15.25
2023-04-09T19:52:56.606Z,15.25
2023-04-09T19:55:00.164Z,15.12
2023-04-09T19:57:09.580Z,15.09
2023-04-09T20:09:43.827Z,14.82
2023-04-09T20:12:53.497Z,14.59
2023-04-09T20:15:53.214Z,14.59
2023-04-09T20:35:52.776Z,14.41
2023-04-09T20:37:55.335Z,14.36
2023-04-09T20:39:56.340Z,14.27
2023-04-09T21:58:35.050Z,12.51
2023-04-09T21:59:05.554Z,12.43
2023-04-09T22:02:16.748Z,12.29
2023-04-09T22:08:15.674Z,12.03
2023-04-09T22:14:48.032Z,11.98
2023-04-09T22:17:26.461Z,11.91
2023-04-09T22:21:42.381Z,11.88
2023-04-09T22:23:39.978Z,11.86
2023-04-09T22:25:40.679Z,11.84
2023-04-09T22:27:44.172Z,11.75
2023-04-09T22:29:42.638Z,11.66
2023-04-09T22:31:46.739Z,11.68
2023-04-09T22:33:48.175Z,11.65
2023-04-09T22:36:27.594Z,11.61
2023-04-09T22:39:20.954Z,11.53
2023-04-09T22:45:41.180Z,11.38
2023-04-09T22:47:41.011Z,11.40
2023-04-09T22:50:30.122Z,11.36
2023-04-09T22:52:39.334Z,11.37
2023-04-09T22:54:43.805Z,11.33
2023-04-09T22:56:45.991Z,11.30
2023-04-09T22:59:06.951Z,11.22
2023-04-09T23:01:38.946Z,11.09
2023-04-09T23:05:50.096Z,11.09
2023-04-09T23:07:53.198Z,10.99
2023-04-09T23:10:18.763Z,10.97
2023-04-09T23:12:55.991Z,10.95
2023-04-09T23:15:30.111Z,10.93
2023-04-09T23:34:13.275Z,10.59
2023-04-09T23:54:13.888Z,10.44
2023-04-09T23:56:23.272Z,10.43
2023-04-09T23:58:23.417Z,10.41
